Time;durP1;ratioP1;P1;durP2;ratioP2;P2;SDS_P1;SDS_P2;PMS_P1;PMS_P2;Temp;Humidity;BMP_temperature;BMP_pressure;BME280_temperature;BME280_humidity;BME280_pressure;Samples;Min_cycle;Max_cycle;Signal;HPM_P1;HPM_P2
2020/12/21 00:01:19;;;;;;;62.13;27.98;;;;;;;1.99;84.73;101219.44;130564;1095;23152;-55
2020/12/21 00:04:07;;;;;;;64.67;27.73;;;;;;;2.00;84.06;101223.81;130568;1095;23183;-55
2020/12/21 00:06:55;;;;;;;89.33;32.57;;;;;;;2.02;83.92;101227.15;130594;1096;23146;-55
2020/12/21 00:09:46;;;;;;;75.47;29.93;;;;;;;2.02;84.24;101226.34;130550;1095;23345;-55
2020/12/21 00:12:35;;;;;;;67.92;27.02;;;;;;;1.99;83.98;101221.28;130534;1095;24165;-55
2020/12/21 00:15:39;;;;;;;67.63;27.87;;;;;;;1.97;84.52;101228.66;130595;1095;23125;-55
2020/12/21 00:18:27;;;;;;;63.87;28.02;;;;;;;1.97;84.52;101220.59;130563;1095;23802;-55
2020/12/21 00:21:15;;;;;;;70.12;28.87;;;;;;;1.99;84.30;101221.28;130570;1095;23215;-55
2020/12/21 00:24:04;;;;;;;66.40;29.25;;;;;;;1.99;84.03;101222.12;130568;1095;23215;-56
2020/12/21 00:26:51;;;;;;;;;;;;;;;1.98;84.59;101223.13;130604;1095;23808;-55
2020/12/21 00:29:44;;;;;;;67.70;28.47;;;;;;;1.89;84.06;101204.41;130573;1095;21378;-55
2020/12/21 00:32:35;;;;;;;71.75;30.30;;;;;;;1.96;84.02;101225.12;130588;1089;23152;-55
2020/12/21 00:35:23;;;;;;;79.57;31.57;;;;;;;1.99;84.35;101223.97;130576;1090;24102;-55
2020/12/21 00:38:10;;;;;;;76.97;30.50;;;;;;;2.01;84.76;101224.65;130560;1095;23167;-55
2020/12/21 00:40:58;;;;;;;76.60;28.40;;;;;;;2.03;84.05;101223.46;130564;1096;23244;-55
2020/12/21 00:43:46;;;;;;;66.37;27.62;;;;;;;2.03;84.50;101212.70;130591;1095;23198;-55
2020/12/21 00:46:35;;;;;;;67.40;27.77;;;;;;;2.04;84.02;101217.08;130574;1095;23274;-55
2020/12/21 00:49:22;;;;;;;68.70;29.80;;;;;;;2.06;84.85;101216.92;130525;1096;23766;-55
2020/12/21 00:52:10;;;;;;;75.92;29.57;;;;;;;2.05;84.10;101215.23;130539;1095;23150;-55
2020/12/21 00:54:58;;;;;;;76.00;32.48;;;;;;;2.05;83.74;101215.23;130528;1096;23289;-56
2020/12/21 00:57:45;;;;;;;69.32;29.60;;;;;;;2.05;83.80;101215.23;130557;1095;23147;-56
2020/12/21 01:00:33;;;;;;;74.97;30.75;;;;;;;2.06;84.83;101211.55;130567;1096;24128;-55
2020/12/21 01:03:21;;;;;;;67.42;28.17;;;;;;;2.07;83.68;101215.92;130561;1096;23170;-55
2020/12/21 01:06:09;;;;;;;69.20;29.55;;;;;;;2.10;84.30;101212.92;130551;1095;23311;-55
2020/12/21 01:08:57;;;;;;;75.65;31.68;;;;;;;2.09;83.56;101206.70;130557;1095;23227;-55
2020/12/21 01:11:45;;;;;;;76.50;29.03;;;;;;;2.07;83.80;101208.70;130573;1095;24207;-55
2020/12/21 01:14:33;;;;;;;67.08;29.42;;;;;;;2.08;83.92;101209.55;130559;1096;23822;-55
2020/12/21 01:17:20;;;;;;;85.05;34.27;;;;;;;2.09;84.38;101211.23;130573;1095;23140;-55
2020/12/21 01:20:12;;;;;;;75.55;31.70;;;;;;;2.07;84.03;101203.33;130555;1096;23252;-55
2020/12/21 01:23:00;;;;;;;72.70;31.10;;;;;;;2.07;84.33;101202.48;130510;1096;23179;-55
2020/12/21 01:25:48;;;;;;;66.35;29.87;;;;;;;2.07;84.84;101202.48;130562;1095;24149;-55
2020/12/21 01:28:36;;;;;;;70.37;29.48;;;;;;;2.09;84.61;101197.79;130565;1095;24686;-55
2020/12/21 01:31:25;;;;;;;74.90;30.77;;;;;;;2.11;84.33;101198.47;130530;1095;23143;-55
2020/12/21 01:34:25;;;;;;;68.20;27.67;;;;;;;2.11;84.46;101198.47;130559;1095;23250;-55
2020/12/21 01:37:12;;;;;;;56.92;22.42;;;;;;;2.12;84.13;101201.00;130552;1096;23214;-55
2020/12/21 01:40:58;;;;;;;70.60;28.90;;;;;;;2.09;83.83;101198.63;126142;1100;23315;-55
2020/12/21 01:43:47;;;;;;;74.00;29.87;;;;;;;2.08;84.29;101196.95;125672;1100;25209;-53
2020/12/21 01:46:36;;;;;;;70.20;29.93;;;;;;;2.09;83.96;101201.32;125748;1101;23372;-55
2020/12/21 01:49:26;;;;;;;66.00;28.10;;;;;;;2.07;84.34;101200.64;125761;1100;23372;-54
2020/12/21 01:52:17;;;;;;;62.55;24.75;;;;;;;2.07;83.94;101205.17;125825;1100;23329;-55
2020/12/21 01:55:11;;;;;;;55.70;24.00;;;;;;;2.05;83.73;101202.64;130018;1100;24141;-56
2020/12/21 01:57:59;;;;;;;61.57;23.93;;;;;;;2.05;84.47;101204.48;130039;1100;23836;-56
2020/12/21 02:00:47;;;;;;;47.90;21.62;;;;;;;2.03;84.17;101201.95;130031;1100;23822;-56
2020/12/21 02:03:35;;;;;;;46.28;20.08;;;;;;;2.04;83.52;101209.02;129992;1100;23265;-56
2020/12/21 02:06:22;;;;;;;57.27;21.82;;;;;;;2.06;84.52;101198.95;130120;1099;23236;-56
2020/12/21 02:09:10;;;;;;;49.85;23.75;;;;;;;2.03;84.05;101206.48;130048;1100;23177;-56
2020/12/21 02:11:58;;;;;;;48.95;21.80;;;;;;;2.03;83.87;101206.48;130068;1101;23465;-56
2020/12/21 02:14:45;;;;;;;47.90;21.10;;;;;;;2.01;83.79;101206.67;130173;1099;23229;-56
2020/12/21 02:17:33;;;;;;;54.33;22.93;;;;;;;2.01;83.88;101205.84;130037;1100;23783;-56
2020/12/21 02:20:28;;;;;;;49.55;22.77;;;;;;;1.98;83.72;101203.46;130034;1100;24178;-56
2020/12/21 02:23:16;;;;;;;49.67;21.43;;;;;;;1.96;83.95;101198.24;129992;1100;23278;-56
2020/12/21 02:26:03;;;;;;;;;;;;;;;1.97;84.15;101193.71;130069;1101;23850;-56
2020/12/21 02:28:55;;;;;;;46.80;18.30;;;;;;;1.96;83.66;101186.65;130016;1093;21376;-56
2020/12/21 02:31:43;;;;;;;45.83;19.90;;;;;;;1.95;83.07;101196.55;130072;1100;23242;-56
2020/12/21 02:34:30;;;;;;;46.68;18.85;;;;;;;1.94;83.92;101191.34;130074;1100;23269;-56
2020/12/21 02:37:18;;;;;;;46.90;21.68;;;;;;;1.93;84.00;101192.34;130033;1100;24171;-56
2020/12/21 02:40:07;;;;;;;45.47;19.77;;;;;;;1.92;83.34;101196.03;130026;1100;23221;-56
2020/12/21 02:42:54;;;;;;;43.60;18.75;;;;;;;1.91;83.71;101197.03;130063;1101;24496;-56
2020/12/21 02:45:42;;;;;;;44.08;20.25;;;;;;;1.90;83.52;101198.03;130090;1100;23259;-56
2020/12/21 02:48:30;;;;;;;46.53;20.82;;;;;;;1.88;83.61;101206.25;130094;1100;23163;-56
2020/12/21 02:51:17;;;;;;;51.48;21.87;;;;;;;1.88;83.62;101203.56;130016;1101;23215;-56
2020/12/21 02:54:05;;;;;;;46.37;20.62;;;;;;;1.87;83.67;101203.75;130031;1099;23156;-56
2020/12/21 02:56:53;;;;;;;44.40;18.50;;;;;;;1.86;83.12;101208.28;127127;1100;23508;-54
2020/12/21 02:59:43;;;;;;;41.90;19.35;;;;;;;1.86;83.58;101205.59;125734;1101;23331;-55
2020/12/21 03:02:31;;;;;;;;;;;;;;;1.87;83.89;101212.66;130075;1100;23185;-56
2020/12/21 03:05:27;;;;;;;47.85;18.85;;;;;;;1.88;83.45;101216.16;130014;1101;21373;-56
2020/12/21 03:08:16;;;;;;;48.50;21.87;;;;;;;1.88;84.20;101214.31;130020;1102;23180;-56
2020/12/21 03:11:08;;;;;;;48.50;20.03;;;;;;;1.87;84.32;101218.03;129974;1099;23899;-56
2020/12/21 03:13:56;;;;;;;55.50;21.70;;;;;;;1.87;84.47;101225.25;130083;1100;23203;-56
2020/12/21 03:16:44;;;;;;;;;;;;;;;1.87;83.74;101218.03;130079;1101;23152;-56
2020/12/21 03:19:31;;;;;;;46.13;19.70;;;;;;;1.86;83.46;101224.41;130117;1093;21427;-56
2020/12/21 03:22:19;;;;;;;58.08;23.30;;;;;;;1.85;84.00;101219.19;130046;1100;23985;-56
2020/12/21 03:25:10;;;;;;;53.75;21.87;;;;;;;1.85;83.70;101213.81;130022;1100;23251;-56
2020/12/21 03:27:58;;;;;;;48.50;22.17;;;;;;;1.85;83.51;101205.75;130025;1100;24115;-56
2020/12/21 03:30:46;;;;;;;56.73;22.42;;;;;;;1.85;84.38;101205.75;130028;1100;23774;-56
2020/12/21 03:33:33;;;;;;;37.00;17.12;;;;;;;1.86;83.66;101218.19;130021;1100;24707;-56
2020/12/21 03:36:21;;;;;;;52.50;22.30;;;;;;;1.87;83.62;101218.03;130081;1100;23318;-56
2020/12/21 03:39:09;;;;;;;56.23;23.35;;;;;;;1.88;83.34;101217.00;130074;1100;23301;-56
2020/12/21 03:41:57;;;;;;;60.38;23.80;;;;;;;1.85;83.95;101213.81;130013;1100;23299;-56
2020/12/21 03:44:44;;;;;;;60.58;26.42;;;;;;;1.82;83.29;101214.97;130012;1100;23143;-56
2020/12/21 03:47:32;;;;;;;59.50;24.98;;;;;;;1.82;83.89;101209.59;130040;1100;23802;-56
2020/12/21 03:50:20;;;;;;;;;;;;;;;1.80;83.72;101214.28;130064;1100;23291;-56
2020/12/21 03:53:08;;;;;;;65.17;25.03;;;;;;;1.76;83.98;101220.97;130056;1100;21457;-56
2020/12/21 03:55:55;;;;;;;60.25;24.80;;;;;;;1.74;84.03;101223.81;129997;1100;23841;-56
2020/12/21 03:58:43;;;;;;;54.98;23.35;;;;;;;1.69;83.26;101220.78;130059;1100;23183;-56
2020/12/21 04:01:31;;;;;;;57.17;22.50;;;;;;;1.67;84.49;101213.88;130064;1100;23199;-56
2020/12/21 04:04:18;;;;;;;50.45;20.27;;;;;;;1.64;83.60;101222.25;130000;1100;23158;-56
2020/12/21 04:07:06;;;;;;;;;;;;;;;1.65;84.65;101222.09;130099;1102;23162;-56
2020/12/21 04:09:54;;;;;;;51.10;20.55;;;;;;;1.67;84.12;101214.72;130005;1100;21478;-56
2020/12/21 04:12:42;;;;;;;50.60;20.08;;;;;;;1.69;84.75;101210.03;130038;1100;23143;-56
2020/12/21 04:15:29;;;;;;;;;;;;;;;1.73;84.55;101215.94;130095;1100;24198;-56
2020/12/21 04:18:17;;;;;;;48.00;21.37;;;;;;;1.75;84.94;101214.75;130052;1100;21378;-56
2020/12/21 04:21:11;;;;;;;;;;;;;;;1.74;84.17;101210.37;130058;1100;23167;-56
2020/12/21 04:24:00;;;;;;;57.97;21.30;;;;;;;1.74;84.97;101212.22;130026;1100;21394;-56
2020/12/21 04:26:47;;;;;;;55.83;23.57;;;;;;;1.73;84.69;101200.63;130043;1100;23475;-56
2020/12/21 04:29:35;;;;;;;50.95;19.92;;;;;;;1.73;84.47;101203.31;130025;1100;23203;-56
2020/12/21 04:32:23;;;;;;;53.58;21.45;;;;;;;1.74;84.38;101205.00;130106;1100;23160;-56
2020/12/21 04:35:10;;;;;;;47.33;20.27;;;;;;;1.77;84.85;101214.59;130069;1100;23165;-56
2020/12/21 04:37:58;;;;;;;53.87;21.75;;;;;;;1.78;84.57;101208.22;130050;1100;23251;-56
2020/12/21 04:40:56;;;;;;;53.90;22.87;;;;;;;1.80;84.48;101203.53;130004;1100;24185;-56
2020/12/21 04:43:43;;;;;;;59.00;24.77;;;;;;;1.81;84.92;101191.78;130024;1102;23210;-56
2020/12/21 04:46:31;;;;;;;55.70;23.15;;;;;;;1.83;84.63;101197.00;130037;1101;23136;-56
2020/12/21 04:49:19;;;;;;;67.30;26.33;;;;;;;1.84;84.57;101198.69;130032;1101;23159;-56
2020/12/21 04:52:07;;;;;;;59.05;25.05;;;;;;;1.84;84.25;101201.38;130035;1101;23812;-56
2020/12/21 04:54:55;;;;;;;62.90;25.40;;;;;;;1.82;84.08;101198.00;129996;1101;23180;-56
2020/12/21 04:58:03;;;;;;;60.35;26.95;;;;;;;1.78;84.08;101198.31;129998;1101;23161;-56
2020/12/21 05:00:51;;;;;;;59.27;26.80;;;;;;;1.77;84.81;101202.00;130016;1101;23151;-56
2020/12/21 05:03:38;;;;;;;52.40;22.25;;;;;;;1.75;84.45;101197.79;130023;1101;23167;-56
2020/12/21 05:06:53;;;;;;;56.90;22.60;;;;;;;1.74;84.87;101196.94;130047;1101;23174;-56
2020/12/21 05:09:42;;;;;;;83.70;27.73;;;;;;;1.75;84.67;101200.47;130018;1093;23151;-56
2020/12/21 05:12:29;;;;;;;52.73;20.55;;;;;;;1.72;84.93;101206.19;130023;1101;23157;-56
2020/12/21 05:15:19;;;;;;;132.90;43.35;;;;;;;1.71;85.34;101201.81;130064;1101;23262;-56
2020/12/21 05:18:10;;;;;;;179.65;59.60;;;;;;;1.70;84.62;101208.19;130057;1101;23155;-56
2020/12/21 05:21:08;;;;;;;66.63;25.70;;;;;;;1.71;85.12;101201.81;129999;1102;23164;-56
2020/12/21 05:24:02;;;;;;;96.22;35.60;;;;;;;1.67;84.98;101203.97;129994;1101;23907;-56
2020/12/21 05:26:50;;;;;;;70.65;29.45;;;;;;;1.66;84.98;101206.81;130009;1100;23181;-56
2020/12/21 05:29:38;;;;;;;61.40;24.85;;;;;;;1.63;85.11;101209.81;130038;1102;23221;-56
2020/12/21 05:32:26;;;;;;;64.72;30.05;;;;;;;1.59;84.68;101208.44;130017;1102;24253;-56
2020/12/21 05:35:14;;;;;;;50.73;21.60;;;;;;;1.60;85.78;101215.50;129872;1101;23171;-55
2020/12/21 05:38:02;;;;;;;45.93;19.13;;;;;;;1.60;85.40;101208.28;130324;1099;23780;-56
2020/12/21 05:40:50;;;;;;;45.20;19.77;;;;;;;1.60;84.82;101205.59;130340;1098;23193;-56
2020/12/21 05:43:38;;;;;;;;;;;;;;;1.61;85.10;101203.75;130398;1099;23265;-56
2020/12/21 05:46:26;;;;;;;45.98;20.30;;;;;;;1.65;85.99;101213.19;130346;1098;21360;-56
2020/12/21 05:49:14;;;;;;;53.80;22.45;;;;;;;1.66;86.25;101214.88;130315;1099;23130;-56
2020/12/21 05:52:02;;;;;;;60.88;27.00;;;;;;;1.66;85.72;101225.62;130327;1098;23147;-56
2020/12/21 05:54:50;;;;;;;;;;;;;;;1.65;85.29;101218.56;130344;1092;23170;-56
2020/12/21 05:57:38;;;;;;;74.40;31.50;;;;;;;1.65;85.55;101221.25;130295;1099;21352;-56
2020/12/21 06:00:26;;;;;;;70.67;29.67;;;;;;;1.63;86.05;101224.09;130305;1098;23233;-56
2020/12/21 06:03:14;;;;;;;48.50;21.75;;;;;;;1.63;85.62;101226.77;130321;1099;23225;-56
2020/12/21 06:06:06;;;;;;;56.95;23.80;;;;;;;1.60;85.39;101224.40;128771;1098;25037;-55
2020/12/21 06:08:59;;;;;;;56.40;23.55;;;;;;;1.60;85.42;101224.40;126124;1098;26778;-55
2020/12/21 06:11:56;;;;;;;44.05;18.35;;;;;;;1.57;85.74;101230.11;130337;1099;23212;-56
2020/12/21 06:14:43;;;;;;;57.67;25.88;;;;;;;1.56;85.22;101241.02;130364;1098;23845;-54
2020/12/21 06:17:33;;;;;;;59.18;27.67;;;;;;;1.53;85.23;101242.16;130356;1099;23152;-54
2020/12/21 06:20:42;;;;;;;48.00;19.10;;;;;;;1.52;85.71;101239.63;130282;1098;23166;-54
2020/12/21 06:23:38;;;;;;;48.60;19.33;;;;;;;1.50;85.49;101245.16;130321;1092;23155;-54
2020/12/21 06:26:30;;;;;;;26.77;12.00;;;;;;;1.47;86.04;101242.78;130303;1098;23244;-54
2020/12/21 06:29:22;;;;;;;26.45;11.85;;;;;;;1.44;85.95;101243.12;130351;1098;23139;-54
2020/12/21 06:32:10;;;;;;;25.65;11.75;;;;;;;1.41;86.49;101244.27;130333;1098;24156;-54
2020/12/21 06:34:59;;;;;;;24.23;10.70;;;;;;;1.41;86.27;101246.11;130355;1099;23191;-54
2020/12/21 06:37:59;;;;;;;;;;;;;;;1.42;85.12;101245.11;130368;1099;23201;-54
2020/12/21 06:40:46;;;;;;;26.25;14.00;;;;;;;1.40;86.00;101247.95;130326;1098;21915;-54
2020/12/21 06:43:34;;;;;;;15.18;9.20;;;;;;;1.41;85.22;101246.95;130332;1098;23262;-54
2020/12/21 06:46:22;;;;;;;122.28;51.90;;;;;;;1.40;86.55;101247.11;130326;1098;23215;-54
2020/12/21 06:49:12;;;;;;;37.50;17.57;;;;;;;1.37;86.19;101248.25;130294;1098;23148;-54
2020/12/21 06:52:00;;;;;;;45.67;26.80;;;;;;;1.34;86.06;101250.41;130349;1099;24119;-54
2020/12/21 06:54:53;;;;;;;40.00;19.62;;;;;;;1.34;86.76;101258.45;130315;1098;23170;-54
2020/12/21 06:57:41;;;;;;;25.70;16.03;;;;;;;1.35;85.59;101247.56;130338;1098;23150;-54
2020/12/21 07:00:28;;;;;;;22.75;14.83;;;;;;;1.39;86.39;101253.47;130336;1098;23205;-54
2020/12/21 07:03:16;;;;;;;16.87;10.90;;;;;;;1.40;86.09;101256.01;130321;1098;23603;-54
2020/12/21 07:06:06;;;;;;;12.83;7.27;;;;;;;1.44;85.98;101258.39;130301;1099;23188;-54
2020/12/21 07:08:57;;;;;;;10.82;6.30;;;;;;;1.43;85.67;101260.23;130274;1099;23255;-53
2020/12/21 07:11:45;;;;;;;11.97;7.20;;;;;;;1.41;85.32;101260.38;130348;1091;23212;-53
2020/12/21 07:14:39;;;;;;;9.73;5.58;;;;;;;1.41;86.22;101254.16;130269;1099;23904;-53
2020/12/21 07:17:27;;;;;;;11.87;7.70;;;;;;;1.39;85.67;101256.16;126383;1098;24995;-55
2020/12/21 07:20:15;;;;;;;14.87;9.07;;;;;;;1.40;85.84;101258.69;126301;1098;23597;-54
2020/12/21 07:23:03;;;;;;;12.53;7.28;;;;;;;1.41;85.79;101254.16;130325;1099;23209;-53
2020/12/21 07:25:51;;;;;;;12.15;7.62;;;;;;;1.43;85.24;101256.70;130275;1099;23161;-54
2020/12/21 07:28:39;;;;;;;18.20;10.53;;;;;;;1.44;85.28;101253.02;130284;1099;23214;-53
2020/12/21 07:31:27;;;;;;;20.60;11.47;;;;;;;1.45;85.42;101252.83;130283;1098;23143;-53
2020/12/21 07:34:15;;;;;;;24.47;13.75;;;;;;;1.49;86.28;101253.37;130319;1099;23235;-53
2020/12/21 07:37:07;;;;;;;24.73;13.10;;;;;;;1.51;85.83;101251.38;130307;1099;24100;-53
2020/12/21 07:39:55;;;;;;;18.90;8.97;;;;;;;1.54;85.97;101257.28;130302;1098;23190;-53
2020/12/21 07:42:42;;;;;;;17.15;7.03;;;;;;;1.55;85.41;101250.91;130331;1098;23273;-53
2020/12/21 07:45:30;;;;;;;17.82;8.00;;;;;;;1.54;85.10;101254.59;130255;1099;23177;-53
2020/12/21 07:48:18;;;;;;;9.40;6.40;;;;;;;1.52;85.64;101259.28;130307;1098;23836;-53
2020/12/21 07:51:06;;;;;;;9.93;5.30;;;;;;;1.51;85.25;101254.06;130315;1099;23868;-53
2020/12/21 07:53:53;;;;;;;10.18;6.00;;;;;;;1.51;85.08;101251.38;130280;1099;23270;-53
2020/12/21 07:56:41;;;;;;;15.03;7.20;;;;;;;1.52;85.31;101245.00;130128;1100;23173;-53
2020/12/21 07:59:29;;;;;;;11.50;5.62;;;;;;;1.53;85.61;101241.32;130336;1099;23280;-53
2020/12/21 08:02:17;;;;;;;10.10;6.30;;;;;;;1.55;85.76;101229.42;130371;1098;24193;-53
2020/12/21 08:05:04;;;;;;;;;;;;;;;1.59;84.93;101238.83;130274;1099;23260;-53
2020/12/21 08:07:52;;;;;;;11.40;5.60;;;;;;;1.53;84.70;101226.05;130303;1098;21995;-53
2020/12/21 08:10:39;;;;;;;7.87;4.95;;;;;;;1.68;84.53;101229.84;130332;1091;24634;-53
2020/12/21 08:13:28;;;;;;;;;;;;;;;1.72;85.59;101239.28;130324;1093;23245;-54
2020/12/21 08:16:16;;;;;;;12.43;6.87;;;;;;;1.76;85.40;101243.31;128443;1098;21499;-54
2020/12/21 08:19:04;;;;;;;9.63;6.17;;;;;;;1.75;84.81;101241.62;126163;1097;23296;-51
2020/12/21 08:22:03;;;;;;;13.90;7.57;;;;;;;1.72;84.90;101236.59;130276;1093;23302;-54
2020/12/21 08:25:09;;;;;;;13.20;7.50;;;;;;;1.71;84.33;101245.65;130324;1093;23207;-54
2020/12/21 08:27:58;;;;;;;11.37;6.73;;;;;;;1.72;84.58;101247.34;130320;1093;23166;-54
2020/12/21 08:30:26;;;;;;;11.55;6.70;;;;;;;1.71;85.17;101245.65;129880;1092;23424;-54
2020/12/21 08:32:55;;;;;;;12.73;7.87;;;;;;;1.68;84.61;101248.64;130145;1092;23196;-54
2020/12/21 08:35:26;;;;;;;11.97;6.77;;;;;;;1.65;84.84;101251.64;130071;1098;23174;-54
2020/12/21 08:38:07;;;;;;;13.97;8.00;;;;;;;1.59;84.45;101251.41;130267;1093;23163;-54
2020/12/21 08:40:35;;;;;;;13.83;8.50;;;;;;;1.52;84.90;101251.22;130052;1093;23990;-54
2020/12/21 08:43:02;;;;;;;15.67;9.43;;;;;;;1.50;84.99;101245.16;130272;1099;23175;-54
2020/12/21 08:45:30;;;;;;;16.35;9.50;;;;;;;1.49;85.53;101246.16;130090;1092;24321;-54
2020/12/21 08:47:57;;;;;;;14.50;8.40;;;;;;;1.46;84.92;101246.46;130288;1098;23226;-53
2020/12/21 08:50:25;;;;;;;13.30;8.23;;;;;;;1.43;85.28;101246.80;130244;1099;23230;-53
2020/12/21 08:52:52;;;;;;;17.07;9.73;;;;;;;1.39;84.28;101254.31;130104;1092;24244;-54
2020/12/21 08:55:19;;;;;;;16.30;9.10;;;;;;;1.34;84.22;101245.03;129905;1099;23258;-54
2020/12/21 08:57:47;;;;;;;16.70;9.70;;;;;;;1.29;85.31;101245.52;125873;1093;23276;-53
2020/12/21 09:00:15;;;;;;;16.50;10.10;;;;;;;1.26;85.88;101248.51;130246;1093;23194;-55
2020/12/21 09:02:43;;;;;;;17.30;9.75;;;;;;;1.26;84.92;101244.98;130119;1093;23274;-54
2020/12/21 09:05:10;;;;;;;16.50;9.40;;;;;;;1.24;85.30;101246.97;130248;1093;23275;-55
2020/12/21 09:07:38;;;;;;;19.57;10.00;;;;;;;1.23;85.65;101237.23;130163;1099;23197;-55
2020/12/21 09:10:06;;;;;;;17.50;9.70;;;;;;;1.22;85.26;101233.70;130254;1092;23147;-55
2020/12/21 09:12:34;;;;;;;18.15;10.40;;;;;;;1.22;85.33;101230.17;130041;1093;23249;-55
2020/12/21 09:15:02;;;;;;;16.47;8.93;;;;;;;1.20;85.32;101227.64;130251;1093;23197;-55
2020/12/21 09:17:29;;;;;;;21.77;11.07;;;;;;;1.20;86.50;101227.64;130121;1093;24068;-55
2020/12/21 09:19:57;;;;;;;18.25;11.40;;;;;;;1.24;86.48;101233.55;130292;1098;23213;-55
2020/12/21 09:22:26;;;;;;;14.25;8.50;;;;;;;1.21;85.74;101225.80;130113;1092;23215;-55
2020/12/21 09:24:53;;;;;;;18.40;11.25;;;;;;;1.22;85.47;101235.55;130306;1093;23261;-55
2020/12/21 09:27:21;;;;;;;17.27;9.17;;;;;;;1.25;86.66;101236.08;130170;1093;23250;-65
2020/12/21 09:29:48;;;;;;;16.90;9.67;;;;;;;1.29;85.44;101236.63;130252;1093;23236;-65
2020/12/21 09:32:16;;;;;;;15.93;9.93;;;;;;;1.31;86.15;101227.38;130158;1099;23147;-65
2020/12/21 09:34:43;;;;;;;15.00;9.57;;;;;;;1.32;86.47;101228.23;130296;1091;23180;-65
2020/12/21 09:37:11;;;;;;;15.60;9.95;;;;;;;1.33;85.99;101219.17;130240;1092;23314;-65
2020/12/21 09:39:40;;;;;;;13.45;8.00;;;;;;;1.34;86.22;101227.08;130128;1099;23177;-66
2020/12/21 09:42:07;;;;;;;16.70;9.43;;;;;;;1.34;85.97;101216.34;130243;1093;24215;-65
2020/12/21 09:44:35;;;;;;;20.23;10.73;;;;;;;1.35;86.41;101211.81;130134;1093;23254;-65
2020/12/21 09:47:02;;;;;;;18.40;11.55;;;;;;;1.38;86.55;101214.19;130243;1093;23227;-65
2020/12/21 09:49:29;;;;;;;14.85;9.30;;;;;;;1.40;85.59;101210.36;130116;1091;24740;-65
2020/12/21 09:51:57;;;;;;;12.67;7.17;;;;;;;1.45;86.10;101215.23;130270;1098;23237;-65
2020/12/21 09:54:25;;;;;;;11.90;7.47;;;;;;;1.44;85.62;101210.05;130121;1093;23124;-65
2020/12/21 09:56:52;;;;;;;11.63;7.23;;;;;;;1.41;86.18;101209.36;130259;1091;23866;-65
2020/12/21 09:59:20;;;;;;;15.60;9.33;;;;;;;1.36;85.07;101210.81;130116;1093;23147;-65
2020/12/21 10:01:47;;;;;;;14.63;8.50;;;;;;;1.31;85.87;101203.22;130227;1093;23186;-66
2020/12/21 10:04:15;;;;;;;13.60;7.60;;;;;;;1.27;86.06;101207.23;130128;1093;23241;-65
2020/12/21 10:06:49;;;;;;;13.05;6.95;;;;;;;1.25;85.03;101211.08;130202;1093;23219;-65
2020/12/21 10:09:27;;;;;;;8.83;5.87;;;;;;;1.21;85.24;101212.38;130075;1092;24093;-65
2020/12/21 10:11:55;;;;;;;20.50;8.60;;;;;;;1.17;85.29;101213.67;130281;1098;24111;-65
2020/12/21 10:14:22;;;;;;;14.53;7.33;;;;;;;1.21;85.20;101209.69;128000;1093;23321;-64
2020/12/21 10:16:53;;;;;;;9.50;5.50;;;;;;;1.25;86.11;101213.77;130292;1092;23180;-65
2020/12/21 10:19:21;;;;;;;9.13;5.17;;;;;;;1.28;85.85;101211.61;130107;1099;23169;-65
2020/12/21 10:21:49;;;;;;;8.30;5.25;;;;;;;1.32;86.11;101212.12;130272;1093;23222;-65
2020/12/21 10:24:16;;;;;;;10.93;4.93;;;;;;;1.35;85.21;101209.97;130091;1099;23269;-65
2020/12/21 10:26:44;;;;;;;11.20;7.07;;;;;;;1.36;86.27;101192.02;130278;1092;23182;-65
2020/12/21 10:29:11;;;;;;;20.50;12.77;;;;;;;1.38;86.20;101200.77;130224;1093;24230;-65
2020/12/21 10:31:39;;;;;;;21.73;14.00;;;;;;;1.41;85.86;101200.45;130129;1092;23275;-65
2020/12/21 10:34:06;;;;;;;12.57;7.33;;;;;;;1.41;85.76;101205.83;130212;1093;23850;-66
2020/12/21 10:36:33;;;;;;;11.55;6.80;;;;;;;1.38;85.68;101195.39;130171;1093;23282;-65
2020/12/21 10:39:01;;;;;;;14.05;8.70;;;;;;;1.37;85.16;101193.70;130275;1093;23927;-65
2020/12/21 10:41:31;;;;;;;11.95;8.00;;;;;;;1.37;85.92;101188.34;130125;1093;23338;-65
2020/12/21 10:43:58;;;;;;;8.77;5.47;;;;;;;1.39;86.17;101191.70;130285;1098;24101;-65
2020/12/21 10:46:26;;;;;;;19.23;11.47;;;;;;;1.42;85.51;101196.77;130107;1092;23850;-65
2020/12/21 10:48:53;;;;;;;22.60;11.07;;;;;;;1.45;86.17;101192.91;130243;1092;23223;-65
2020/12/21 10:51:31;;;;;;;31.10;13.55;;;;;;;1.48;85.49;101189.91;130127;1098;23146;-65
2020/12/21 10:53:59;;;;;;;24.37;11.07;;;;;;;1.50;85.00;101187.91;130264;1093;23497;-65
2020/12/21 10:56:27;;;;;;;13.95;7.10;;;;;;;1.53;85.73;101191.12;127989;1093;23319;-64
2020/12/21 10:58:57;;;;;;;10.73;6.70;;;;;;;1.53;85.42;101193.81;130258;1093;23895;-65
2020/12/21 11:01:25;;;;;;;11.30;6.67;;;;;;;1.53;85.21;101193.81;130174;1092;23169;-65
2020/12/21 11:03:52;;;;;;;11.07;6.00;;;;;;;1.54;85.69;101186.60;130278;1099;24148;-65
2020/12/21 11:06:20;;;;;;;15.35;8.85;;;;;;;1.53;85.90;101191.12;130149;1093;23145;-65
2020/12/21 11:08:48;;;;;;;12.70;6.80;;;;;;;1.54;85.47;101189.28;130235;1093;23289;-66
2020/12/21 11:11:23;;;;;;;13.70;7.45;;;;;;;1.55;84.92;101183.76;130184;1092;27220;-65
2020/12/21 11:13:51;;;;;;;13.50;7.10;;;;;;;1.58;85.85;101193.34;130259;1093;23198;-65
2020/12/21 11:16:19;;;;;;;8.73;5.87;;;;;;;1.58;84.80;101188.82;130167;1093;23273;-65
2020/12/21 11:18:47;;;;;;;8.67;5.90;;;;;;;1.56;85.01;101180.08;130277;1091;23237;-66
2020/12/21 11:21:15;;;;;;;11.43;8.47;;;;;;;1.55;85.15;101188.28;130252;1092;23267;-65
2020/12/21 11:23:57;;;;;;;9.25;6.30;;;;;;;1.55;85.50;101188.28;130247;1098;23216;-65
2020/12/21 11:26:27;;;;;;;11.87;7.07;;;;;;;1.53;85.10;101190.28;130287;1093;23303;-65
2020/12/21 11:28:54;;;;;;;8.37;6.13;;;;;;;1.51;84.22;101187.75;130117;1093;23142;-65
2020/12/21 11:31:21;;;;;;;10.20;5.83;;;;;;;1.49;85.27;101189.75;130262;1093;24542;-65
2020/12/21 11:33:49;;;;;;;8.10;5.37;;;;;;;1.46;84.70;101187.38;130130;1092;23329;-65
2020/12/21 11:36:16;;;;;;;20.77;10.07;;;;;;;1.43;84.79;101190.41;130278;1099;24236;-65
2020/12/21 11:38:44;;;;;;;10.50;6.30;;;;;;;1.41;84.89;101184.34;130069;1093;24210;-66
2020/12/21 11:41:11;;;;;;;11.65;6.35;;;;;;;1.40;84.65;101188.02;130287;1098;23229;-65
2020/12/21 11:43:38;;;;;;;7.70;5.47;;;;;;;1.39;85.52;101186.34;130112;1093;23205;-66
2020/12/21 11:46:06;;;;;;;9.97;6.20;;;;;;;1.36;85.53;101184.80;130274;1093;23299;-65
2020/12/21 11:48:34;;;;;;;8.47;5.43;;;;;;;1.35;85.19;101179.59;130091;1093;23200;-65
2020/12/21 11:51:01;;;;;;;12.65;7.25;;;;;;;1.31;85.13;101175.53;130244;1093;23161;-65
2020/12/21 11:53:30;;;;;;;11.60;7.10;;;;;;;1.31;84.91;101186.27;130098;1093;23198;-66
2020/12/21 11:55:57;;;;;;;13.27;7.57;;;;;;;1.31;84.59;101186.27;130245;1093;23172;-65
2020/12/21 11:58:25;;;;;;;10.60;6.65;;;;;;;1.29;85.09;101188.30;130132;1093;24077;-66
2020/12/21 12:00:53;;;;;;;13.63;6.80;;;;;;;1.29;85.02;101185.61;130289;1098;23258;-65
2020/12/21 12:03:21;;;;;;;12.75;8.00;;;;;;;1.28;85.40;101182.08;130183;1092;23204;-65
2020/12/21 12:05:48;;;;;;;12.70;7.20;;;;;;;1.28;84.40;101190.13;129143;1093;26775;-67
2020/12/21 12:08:16;;;;;;;13.73;7.87;;;;;;;1.26;85.00;101192.13;130133;1093;23350;-67
2020/12/21 12:10:46;;;;;;;15.90;8.07;;;;;;;1.24;84.88;101196.81;130235;1093;23153;-67
2020/12/21 12:13:14;;;;;;;13.63;8.17;;;;;;;1.24;85.52;101202.17;130287;1092;23245;-67
2020/12/21 12:15:42;;;;;;;22.50;11.10;;;;;;;1.26;85.33;101200.19;130128;1098;23919;-67
2020/12/21 12:18:09;;;;;;;19.57;10.90;;;;;;;1.27;85.11;101199.19;130253;1093;23166;-67
2020/12/21 12:20:37;;;;;;;33.77;18.27;;;;;;;1.25;84.66;101193.13;130135;1099;23162;-67
2020/12/21 12:23:05;;;;;;;38.15;19.50;;;;;;;1.23;84.56;101197.80;130227;1093;23173;-67
2020/12/21 12:25:33;;;;;;;40.25;21.50;;;;;;;1.22;84.42;101195.27;130133;1093;23257;-67